• Join FlightAware (Why Join?)
  • Login
  • US Flag 
09:50AM EDT


 

Airport Tracker/Info


-or-


 

Live Flight TrackerFlight Track Log ✈ SWA2857 ✈ 07-May-2013 ✈ KBOS - KMKE

Flight Track Log - Related Links

Times and Time Zones

All times are in EDT time to prevent confusion due to time zone crossing. See the SWA2857 flight status page for this flight to view local times or setup timezone preferences in your user account.

Time Position Orientation Groundspeed Altitude Reporting Facility
EDT Latitude Longitude Course Direction KTS MPH feet Rate Location/Type
08:10PM 42.3667 -71.0167 180° South 131 151 1,000  Level KA90
08:10PM 42.3500 -71.0167 180° South 138 159 1,600 2,820 Climbing KA90
08:11PM 42.3167 -70.9667 132° Southeast 222 255 4,700 2,880 Climbing KA90
08:13PM 42.3306 -70.8197 83° East 273 314 9,400 3,360 Climbing Boston Center
08:14PM 42.3731 -70.7397 54° Northeast 273 314 13,900 3,900 Climbing Boston Center
08:15PM 42.4603 -70.7206 North 276 318 17,300 3,420 Climbing Boston Center
08:16PM 42.5533 -70.7997 328° Northwest 276 318 20,800 3,300 Climbing Boston Center
08:17PM 42.6089 -70.9167 303° West 336 387 24,000 3,120 Climbing Boston Center
08:18PM 42.6731 -71.0422 305° West 375 432 27,100 2,880 Climbing Boston Center
08:19PM 42.7372 -71.1767 303° West 406 467 29,800 1,440 Climbing Boston Center
08:20PM 42.7889 -71.3197 296° West 418 481 30,000 300 Climbing Boston Center
08:21PM 42.8069 -71.4750 279° West 418 481 30,500 480 Climbing Boston Center
08:22PM 42.8164 -71.6361 275° West 425 489 31,000 300 Climbing Boston Center
08:23PM 42.8319 -71.7975 278° West 431 496 31,100 1,440 Climbing Boston Center
08:24PM 42.8475 -71.9586 278° West 431 496 33,900 2,400 Climbing Boston Center
08:25PM 42.8625 -72.1172 277° West 426 490 36,000 1,740 Climbing Boston Center
08:26PM 42.8775 -72.2928 277° West 426 490 37,400 1,740 Climbing Boston Center
08:27PM 42.8986 -72.4400 281° West 431 496 39,500 1,260 Climbing Boston Center
08:28PM 42.9108 -72.5989 276° West 431 496 40,000 240 Climbing Boston Center
08:29PM 42.9167 -72.7747 273° West 422 486 40,000  Level Boston Center
08:30PM 42.9308 -72.9306 277° West 422 486 40,000  Level Boston Center
08:31PM 42.9489 -73.0811 279° West 427 491 40,000  Level Boston Center
08:32PM 42.9583 -73.2400 275° West 427 491 40,000  Level Boston Center
08:33PM 42.9675 -73.3992 275° West 427 491 40,000  Level Boston Center
08:34PM 42.9825 -73.5583 277° West 422 486 40,000  Level Boston Center
08:35PM 42.9956 -73.7203 276° West 422 486 40,000  Level Boston Center
08:36PM 43.0083 -73.8797 276° West 428 493 40,000  Level Boston Center
08:37PM 43.0186 -74.0417 275° West 428 493 40,000  Level Boston Center
08:38PM 43.0308 -74.2039 276° West 428 493 40,000  Level Boston Center
08:39PM 43.0447 -74.3692 277° West 428 493 40,000  Level Boston Center
08:40PM 43.0581 -74.5656 275° West 433 498 40,000  Level Boston Center
08:41PM 43.0694 -74.7253 276° West 433 498 40,000  Level Boston Center
08:42PM 43.0806 -74.8933 275° West 433 498 40,000  Level Boston Center
08:43PM 43.0894 -75.0558 274° West 438 504 40,000  Level Boston Center
08:44PM 43.1000 -75.2214 275° West 438 504 40,000  Level Boston Center
08:45PM 43.1125 -75.3869 276° West 444 511 40,000  Level Boston Center
08:46PM 43.1228 -75.5494 275° West 444 511 40,000  Level Boston Center
08:47PM 43.1328 -75.7150 275° West 444 511 40,000  Level Boston Center
08:48PM 43.1425 -75.8778 275° West 444 511 40,000  Level Boston Center
08:50PM 43.1500 -76.2458 272° West 441 507 40,000  Level Cleveland Center
08:51PM 43.1206 -76.4075 256° West 441 507 40,000  Level Cleveland Center
08:52PM 43.0867 -76.5689 254° West 441 507 40,000  Level Cleveland Center
08:53PM 43.0525 -76.7275 254° West 441 507 40,000  Level Cleveland Center
08:54PM 43.0200 -76.8856 254° West 441 507 40,000  Level Cleveland Center
08:55PM 42.9856 -77.0467 254° West 441 507 40,000  Level Cleveland Center
08:56PM 42.9528 -77.2044 254° West 441 507 40,000  Level Cleveland Center
08:57PM 42.9178 -77.3653 254° West 441 507 40,000  Level Cleveland Center
08:58PM 42.8867 -77.5228 255° West 446 513 40,000  Level Cleveland Center
08:59PM 42.8531 -77.6831 254° West 441 507 40,000  Level Cleveland Center
09:00PM 42.8175 -77.8433 253° West 441 507 40,000  Level Cleveland Center
09:01PM 42.7817 -78.0061 253° West 441 507 40,000  Level Cleveland Center
09:02PM 42.7456 -78.1631 253° West 441 507 40,000  Level Cleveland Center
09:03PM 42.7111 -78.3228 254° West 441 507 40,000  Level Cleveland Center
09:04PM 42.6764 -78.4736 253° West 447 514 40,000  Level Cleveland Center
09:05PM 42.6397 -78.6328 253° West 447 514 40,000  Level Cleveland Center
09:06PM 42.6047 -78.7947 254° West 447 514 40,000  Level Cleveland Center
09:07PM 42.5675 -78.9536 252° West 442 509 40,000  Level Cleveland Center
09:08PM 42.5322 -79.1125 253° West 442 509 40,000  Level Cleveland Center
09:09PM 42.4967 -79.2736 253° West 442 509 40,000  Level Cleveland Center
09:10PM 42.5089 -79.4397 276° West 436 502 40,000  Level Cleveland Center
09:11PM 42.5250 -79.6056 278° West 436 502 40,000  Level Cleveland Center
09:12PM 42.5511 -79.7714 282° West 441 507 40,000  Level Cleveland Center
09:13PM 42.5708 -79.9375 279° West 458 527 40,000  Level Cleveland Center
09:14PM 42.5864 -80.1150 277° West 447 514 40,000  Level Cleveland Center
09:15PM 42.6078 -80.2842 280° West 447 514 40,000  Level Cleveland Center
09:16PM 42.6269 -80.4506 279° West 453 521 40,000  Level Cleveland Center
09:17PM 42.6478 -80.6200 280° West 446 513 40,000  Level Cleveland Center
09:18PM 42.6644 -80.7667 279° West 452 520 40,000  Level Cleveland Center
09:19PM 42.6847 -80.9361 279° West 450 518 40,000  Level Cleveland Center
09:20PM 42.7028 -81.1031 278° West 450 518 40,000  Level Cleveland Center
09:21PM 42.7208 -81.2728 278° West 450 518 40,000  Level Cleveland Center
09:22PM 42.7406 -81.4397 279° West 460 529 40,000  Level Cleveland Center
09:23PM 42.7578 -81.6097 278° West 455 524 40,000  Level Cleveland Center
09:24PM 42.7747 -81.7939 277° West 462 532 40,000  Level Cleveland Center
09:25PM 42.7936 -81.9611 279° West 451 519 40,000  Level Cleveland Center
09:26PM 42.8125 -82.1286 279° West 451 519 40,000  Level Cleveland Center
09:27PM 42.8289 -82.2958 278° West 446 513 40,000  Level Cleveland Center
09:28PM 42.8450 -82.4633 278° West 446 513 40,000  Level Cleveland Center
09:29PM 42.8631 -82.6311 278° West 446 513 40,000  Level Cleveland Center
09:30PM 42.8786 -82.7958 277° West 446 513 40,000  Level Cleveland Center
09:31PM 42.8942 -82.9667 277° West 446 513 40,000  Level Cleveland Center
09:32PM 42.9092 -83.1317 277° West 446 513 40,000  Level Cleveland Center
09:33PM 42.9242 -83.2967 277° West 446 513 40,000  Level Cleveland Center
09:34PM 42.9389 -83.4647 277° West 446 513 40,000  Level Cleveland Center
09:35PM 42.9556 -83.6272 278° West 446 513 40,000  Level Cleveland Center
09:36PM 42.9697 -83.7953 277° West 446 513 40,000  Level Cleveland Center
09:37PM 42.9861 -83.9608 278° West 446 513 40,000  Level Cleveland Center
09:38PM 43.0017 -84.1292 277° West 446 513 40,000  Level Cleveland Center
09:39PM 43.0172 -84.2978 277° West 446 513 40,000  Level Cleveland Center
09:40PM 43.0319 -84.4319 279° West 450 518 40,000  Level Chicago Center
09:41PM 43.0478 -84.6003 277° West 450 518 40,000  Level Chicago Center
09:42PM 43.0633 -84.7681 277° West 447 514 40,000  Level Chicago Center
09:43PM 43.0806 -84.9692 277° West 445 512 40,000 -300 Level Chicago Center
09:45PM 43.0875 -85.1356 273° West 440 506 39,400 -840 Descending Chicago Center
09:46PM 43.0939 -85.3036 273° West 443 510 38,400 -1,440 Descending Chicago Center
09:47PM 43.1008 -85.4711 273° West 443 510 36,500 -1,920 Descending Chicago Center
09:48PM 43.1072 -85.6408 273° West 446 513 34,500 -2,280 Descending Chicago Center
09:49PM 43.1133 -85.8086 273° West 448 516 31,900 -1,860 Descending Chicago Center
09:50PM 43.1217 -86.0078 273° West 454 522 30,700 -1,680 Descending Chicago Center
09:51PM 43.1267 -86.1733 272° West 451 519 28,600 -2,400 Descending Chicago Center
09:52PM 43.1317 -86.3331 273° West 424 488 25,900 -2,640 Descending Chicago Center
09:53PM 43.1369 -86.4872 273° West 408 470 23,300 -2,460 Descending Chicago Center
09:54PM 43.1408 -86.6353 272° West 394 453 20,900 -2,400 Descending Chicago Center
09:55PM 43.1453 -86.7764 273° West 373 429 18,400 -2,400 Descending Chicago Center
09:56PM 43.1497 -86.9136 273° West 364 419 16,100 -2,580 Descending Chicago Center
09:57PM 43.1442 -87.0692 267° West 343 395 13,200 -2,460 Descending Chicago Center
09:58PM 43.1133 -87.1878 250° West 333 383 11,100 -1,860 Descending Chicago Center
09:59PM 43.0900 -87.2897 253° West 291 335 9,500 -1,920 Descending Chicago Center
10:00PM 43.0678 -87.3797 251° West 272 313 7,300 -2,340 Descending Chicago Center
10:01PM 43.0397 -87.4978 252° West 277 319 4,800 -1,680 Descending Chicago Center
10:02PM 43.0161 -87.5936 251° West 270 311 3,900 -600 Descending Chicago Center
10:03PM 42.9964 -87.6761 252° West 237 273 3,700 -540 Descending Chicago Center
10:04PM 42.9800 -87.7453 252° West 200 230 2,900 -840 Descending Chicago Center
10:05PM 42.9658 -87.8039 252° West 174 200 2,000 -840 Descending Chicago Center
10:06PM 42.9553 -87.8492 252° West 145 167 1,300 -540 Descending Chicago Center
10:07PM 42.9444 -87.8911 251° West 139 160 900 -420 Descending Chicago Center
10:09PM 42.9469 -87.8971 236° Southwest  Level Estimated